Time;durP1;ratioP1;P1;durP2;ratioP2;P2;SDS_P1;SDS_P2;PMS_P1;PMS_P2;Temp;Humidity;BMP_temperature;BMP_pressure;BME280_temperature;BME280_humidity;BME280_pressure;Samples;Min_cycle;Max_cycle;Signal;HPM_P1;HPM_P2
2021/07/02 00:00:21;;;;;;;;;;;20.40;99.90;;;;;;5045482;28;19997;-60
2021/07/02 00:02:46;;;;;;;;;;;20.40;99.90;;;;;;5047589;28;20015;-60
2021/07/02 00:05:12;;;;;;;;;;;20.50;99.90;;;;;;5046794;28;19989;-60
2021/07/02 00:07:38;;;;;;;;;;;20.50;99.90;;;;;;5046722;28;19986;-61
2021/07/02 00:10:05;;;;;;;;;;;20.40;99.90;;;;;;5036089;28;20005;-60
2021/07/02 00:12:30;;;;;;;;;;;20.40;99.90;;;;;;5026792;28;20502;-60
2021/07/02 00:14:56;;;;;;;;;;;20.30;99.90;;;;;;5027049;28;19990;-60
2021/07/02 00:17:22;;;;;;;;;;;20.20;99.90;;;;;;5027096;28;19982;-60
2021/07/02 00:19:48;;;;;;;;;;;20.30;99.90;;;;;;5034672;28;20524;-60
2021/07/02 00:22:14;;;;;;;;;;;20.30;99.90;;;;;;5046598;28;20013;-60
2021/07/02 00:24:39;;;;;;;;;;;20.20;99.90;;;;;;5046098;28;20017;-60
2021/07/02 00:27:05;;;;;;;;;;;20.00;99.90;;;;;;5047266;28;20069;-60
2021/07/02 00:29:30;;;;;;;;;;;19.90;99.90;;;;;;5045926;28;20080;-60
2021/07/02 00:31:57;;;;;;;;;;;20.00;99.90;;;;;;5040296;28;20019;-60
2021/07/02 00:34:23;;;;;;;;;;;20.00;99.90;;;;;;5039625;28;20368;-60
2021/07/02 00:36:48;;;;;;;;;;;19.80;99.90;;;;;;5026510;28;19990;-60
2021/07/02 00:39:14;;;;;;;;;;;19.70;99.90;;;;;;5028067;28;20167;-60
2021/07/02 00:41:40;;;;;;;;;;;19.60;99.90;;;;;;5046649;28;20502;-60
2021/07/02 00:44:06;;;;;;;;;;;19.60;99.90;;;;;;5043362;28;20096;-60
2021/07/02 00:46:31;;;;;;;;;;;19.60;99.90;;;;;;5046861;28;20115;-60
2021/07/02 00:48:57;;;;;;;;;;;19.60;99.90;;;;;;5041246;28;20084;-60
2021/07/02 00:51:22;;;;;;;;;;;19.60;99.90;;;;;;5025599;28;20426;-60
2021/07/02 00:53:48;;;;;;;;;;;19.50;99.90;;;;;;5036850;28;19997;-60
2021/07/02 00:56:18;;;;;;;;;;;19.50;99.90;;;;;;5045804;28;20510;-60
2021/07/02 00:58:45;;;;;;;;;;;19.40;99.90;;;;;;5045334;28;19994;-60
2021/07/02 01:01:17;;;;;;;;;;;19.50;99.90;;;;;;5044483;28;19986;-60
2021/07/02 01:03:44;;;;;;;;;;;19.40;99.90;;;;;;5046115;28;20025;-60
2021/07/02 01:06:10;;;;;;;;;;;19.40;99.90;;;;;;5045482;28;19986;-60
2021/07/02 01:08:37;;;;;;;;;;;19.30;99.90;;;;;;5043630;28;19990;-60
2021/07/02 01:11:02;;;;;;;;;;;19.20;99.90;;;;;;5025638;28;20522;-60
2021/07/02 01:13:28;;;;;;;;;;;19.10;99.90;;;;;;5028784;28;19986;-60
2021/07/02 01:15:54;;;;;;;;;;;19.10;99.90;;;;;;5045522;28;20440;-60
2021/07/02 01:18:22;;;;;;;;;;;18.90;99.90;;;;;;5045326;28;20021;-60
2021/07/02 01:20:52;;;;;;;;;;;19.10;99.90;;;;;;5044663;28;20008;-60
2021/07/02 01:23:18;;;;;;;;;;;18.90;99.90;;;;;;5036911;28;20534;-60
2021/07/02 01:25:44;;;;;;;;;;;19.00;99.90;;;;;;5026090;28;19990;-60
2021/07/02 01:28:09;;;;;;;;;;;19.00;99.90;;;;;;5026382;28;20466;-60
2021/07/02 01:30:35;;;;;;;;;;;19.20;99.90;;;;;;5045544;28;20020;-60
2021/07/02 01:33:01;;;;;;;;;;;19.10;99.90;;;;;;5045397;28;19986;-60
2021/07/02 01:35:26;;;;;;;;;;;19.20;99.90;;;;;;5045659;28;19989;-60
2021/07/02 01:37:52;;;;;;;;;;;19.30;99.90;;;;;;5045170;28;20036;-60
2021/07/02 01:40:17;;;;;;;;;;;19.20;99.90;;;;;;5045318;28;20005;-60
2021/07/02 01:42:43;;;;;;;;;;;19.20;99.90;;;;;;5044188;28;20456;-60
2021/07/02 01:45:09;;;;;;;;;;;19.10;99.90;;;;;;5044879;28;19986;-60
2021/07/02 01:47:35;;;;;;;;;;;19.20;99.90;;;;;;5045627;28;19982;-60
2021/07/02 01:50:01;;;;;;;;;;;19.20;99.90;;;;;;5028271;28;20553;-60
2021/07/02 01:52:26;;;;;;;;;;;19.10;99.90;;;;;;5025851;28;20014;-60
2021/07/02 01:54:52;;;;;;;;;;;19.10;99.90;;;;;;5025359;28;20236;-60
2021/07/02 01:57:21;;;;;;;;;;;18.90;99.90;;;;;;5026307;28;19986;-60
2021/07/02 01:59:47;;;;;;;;;;;18.80;99.90;;;;;;5025108;28;19998;-60
2021/07/02 02:02:13;;;;;;;;;;;18.70;99.90;;;;;;5025532;28;20009;-60
2021/07/02 02:04:38;;;;;;;;;;;18.60;99.90;;;;;;5026895;28;19982;-60
2021/07/02 02:07:04;;;;;;;;;;;18.60;99.90;;;;;;5026573;28;20009;-60
2021/07/02 02:09:29;;;;;;;;;;;18.50;99.90;;;;;;5026346;28;20097;-60
2021/07/02 02:11:55;;;;;;;;;;;18.40;99.90;;;;;;5026402;28;19989;-60
2021/07/02 02:14:21;;;;;;;;;;;18.40;99.90;;;;;;5026743;28;19993;-60
2021/07/02 02:16:47;;;;;;;;;;;18.50;99.90;;;;;;5027524;28;19990;-60
2021/07/02 02:19:13;;;;;;;;;;;18.40;99.90;;;;;;5025922;28;20090;-60
2021/07/02 02:21:39;;;;;;;;;;;18.60;99.90;;;;;;5026987;28;19993;-60
2021/07/02 02:24:05;;;;;;;;;;;18.80;99.90;;;;;;5026672;28;19986;-60
2021/07/02 02:26:30;;;;;;;;;;;18.80;99.90;;;;;;5026977;28;19993;-60
2021/07/02 02:28:56;;;;;;;;;;;19.00;99.90;;;;;;5026185;28;19990;-60
2021/07/02 02:31:22;;;;;;;;;;;18.90;99.90;;;;;;5034800;28;20017;-60
2021/07/02 02:33:47;;;;;;;;;;;18.90;99.90;;;;;;5051003;28;19993;-59
2021/07/02 02:36:13;;;;;;;;;;;18.80;99.90;;;;;;5050354;28;19981;-59
2021/07/02 02:38:39;;;;;;;;;;;18.70;99.90;;;;;;5037386;28;19990;-59
2021/07/02 02:41:05;;;;;;;;;;;18.70;99.90;;;;;;5030043;28;20510;-60
2021/07/02 02:43:30;;;;;;;;;;;18.70;99.90;;;;;;5030078;28;19990;-60
2021/07/02 02:45:56;;;;;;;;;;;18.60;99.90;;;;;;5037050;28;20047;-60
2021/07/02 02:48:22;;;;;;;;;;;18.60;99.90;;;;;;5033030;28;20005;-60
2021/07/02 02:50:47;;;;;;;;;;;18.60;99.90;;;;;;5029867;28;20456;-60
2021/07/02 02:53:13;;;;;;;;;;;18.50;99.90;;;;;;5029606;28;19981;-60
2021/07/02 02:55:38;;;;;;;;;;;18.40;99.90;;;;;;5030167;28;20005;-60
2021/07/02 02:58:04;;;;;;;;;;;18.40;99.90;;;;;;5028749;28;19990;-60
2021/07/02 03:00:30;;;;;;;;;;;18.30;99.90;;;;;;5030329;28;20709;-60
2021/07/02 03:02:57;;;;;;;;;;;18.10;99.90;;;;;;5029720;28;19982;-60
2021/07/02 03:05:22;;;;;;;;;;;18.10;99.90;;;;;;5029810;28;19989;-60
2021/07/02 03:07:52;;;;;;;;;;;18.10;99.90;;;;;;5029590;28;20065;-60
2021/07/02 03:10:18;;;;;;;;;;;17.90;99.90;;;;;;5029002;28;20045;-60
2021/07/02 03:12:45;;;;;;;;;;;18.00;99.90;;;;;;5034595;28;20091;-60
2021/07/02 03:15:11;;;;;;;;;;;18.10;99.90;;;;;;5049495;28;19992;-60
2021/07/02 03:17:36;;;;;;;;;;;17.90;99.90;;;;;;5047052;28;19996;-60
2021/07/02 03:20:03;;;;;;;;;;;17.90;99.90;;;;;;5029262;28;19986;-60
2021/07/02 03:22:28;;;;;;;;;;;17.80;99.90;;;;;;5029746;28;19982;-60
2021/07/02 03:24:54;;;;;;;;;;;17.90;99.90;;;;;;5029373;28;19986;-60
2021/07/02 03:27:19;;;;;;;;;;;17.80;99.90;;;;;;5030079;28;20073;-60
2021/07/02 03:29:46;;;;;;;;;;;17.80;99.90;;;;;;5029493;28;20008;-60
2021/07/02 03:32:11;;;;;;;;;;;17.90;99.90;;;;;;5029240;28;20017;-60
2021/07/02 03:34:38;;;;;;;;;;;17.80;99.90;;;;;;5029276;28;20026;-60
2021/07/02 03:37:04;;;;;;;;;;;17.80;99.90;;;;;;5028665;28;20465;-60
2021/07/02 03:39:30;;;;;;;;;;;17.70;99.90;;;;;;5029843;28;19982;-59
2021/07/02 03:41:55;;;;;;;;;;;17.70;99.90;;;;;;5029110;28;20384;-60
2021/07/02 03:44:21;;;;;;;;;;;17.60;99.90;;;;;;5028961;28;20081;-60
2021/07/02 03:46:46;;;;;;;;;;;17.70;99.90;;;;;;5029060;28;20096;-60
2021/07/02 03:49:12;;;;;;;;;;;17.80;99.90;;;;;;5028159;28;20068;-60
2021/07/02 03:51:37;;;;;;;;;;;17.70;99.90;;;;;;5029420;28;19987;-60
2021/07/02 03:54:03;;;;;;;;;;;17.70;99.90;;;;;;5029413;28;19990;-60
2021/07/02 03:56:29;;;;;;;;;;;17.80;99.90;;;;;;5029504;28;20010;-60
2021/07/02 03:58:54;;;;;;;;;;;17.80;99.90;;;;;;5027537;28;19996;-60
2021/07/02 04:01:20;;;;;;;;;;;17.70;99.90;;;;;;5028785;28;20020;-60
2021/07/02 04:03:45;;;;;;;;;;;17.70;99.90;;;;;;5028622;28;20010;-60
2021/07/02 04:06:11;;;;;;;;;;;17.60;99.90;;;;;;5028440;28;19987;-60
2021/07/02 04:08:37;;;;;;;;;;;17.50;99.90;;;;;;5028556;28;19994;-60
2021/07/02 04:11:05;;;;;;;;;;;17.40;99.90;;;;;;5029039;28;20048;-60
2021/07/02 04:13:30;;;;;;;;;;;17.40;99.90;;;;;;5029187;28;19982;-60
2021/07/02 04:15:56;;;;;;;;;;;17.30;99.90;;;;;;5028152;28;19989;-60
2021/07/02 04:18:21;;;;;;;;;;;17.30;99.90;;;;;;5028039;28;20097;-60
2021/07/02 04:20:47;;;;;;;;;;;17.20;99.90;;;;;;5028582;28;20535;-60
2021/07/02 04:23:13;;;;;;;;;;;17.30;99.90;;;;;;5028244;28;20510;-60
2021/07/02 04:25:38;;;;;;;;;;;17.30;99.90;;;;;;5028474;28;19982;-60
2021/07/02 04:28:04;;;;;;;;;;;17.30;99.90;;;;;;5027668;28;20047;-60
2021/07/02 04:30:29;;;;;;;;;;;17.50;99.90;;;;;;5028846;28;20045;-60
2021/07/02 04:32:55;;;;;;;;;;;17.40;99.90;;;;;;5028157;28;19986;-60
2021/07/02 04:35:20;;;;;;;;;;;17.40;99.90;;;;;;5038391;28;19997;-60
2021/07/02 04:37:46;;;;;;;;;;;17.30;99.90;;;;;;5030600;28;19994;-60
2021/07/02 04:40:12;;;;;;;;;;;17.40;99.90;;;;;;5027799;28;19990;-60
2021/07/02 04:42:39;;;;;;;;;;;17.50;99.90;;;;;;5028042;28;19990;-60
2021/07/02 04:45:05;;;;;;;;;;;17.50;99.90;;;;;;5027265;28;20506;-60
2021/07/02 04:47:31;;;;;;;;;;;17.50;99.90;;;;;;5027328;28;20360;-60
2021/07/02 04:49:59;;;;;;;;;;;17.40;99.90;;;;;;5027242;28;20014;-60
2021/07/02 04:52:25;;;;;;;;;;;17.50;99.90;;;;;;5027604;28;20080;-60
2021/07/02 04:54:51;;;;;;;;;;;17.60;99.90;;;;;;5026469;28;19998;-60
2021/07/02 04:57:16;;;;;;;;;;;17.60;99.90;;;;;;5027456;28;20060;-60
2021/07/02 04:59:43;;;;;;;;;;;17.70;99.90;;;;;;5028053;28;19998;-60
2021/07/02 05:02:09;;;;;;;;;;;17.80;99.90;;;;;;5027404;28;19987;-60
2021/07/02 05:04:34;;;;;;;;;;;18.00;99.90;;;;;;5027695;28;19982;-60
2021/07/02 05:07:01;;;;;;;;;;;17.90;99.90;;;;;;5026756;28;19990;-60
2021/07/02 05:09:27;;;;;;;;;;;17.90;99.90;;;;;;5027832;28;20109;-60
2021/07/02 05:11:52;;;;;;;;;;;17.80;99.90;;;;;;5026825;28;20500;-60
2021/07/02 05:14:18;;;;;;;;;;;17.80;99.90;;;;;;5027073;28;20482;-60
2021/07/02 05:16:43;;;;;;;;;;;17.80;99.90;;;;;;5027260;28;19990;-60
2021/07/02 05:19:09;;;;;;;;;;;17.80;99.90;;;;;;5026827;28;19990;-60
2021/07/02 05:21:35;;;;;;;;;;;17.90;99.90;;;;;;5027055;28;20116;-60
2021/07/02 05:24:00;;;;;;;;;;;17.90;99.90;;;;;;5027181;28;19994;-60
2021/07/02 05:26:27;;;;;;;;;;;17.90;99.90;;;;;;5027402;28;19993;-60
2021/07/02 05:28:53;;;;;;;;;;;18.00;99.90;;;;;;5027756;28;20029;-60
2021/07/02 05:31:19;;;;;;;;;;;17.90;99.90;;;;;;5030972;28;20045;-60
2021/07/02 05:33:44;;;;;;;;;;;18.00;99.90;;;;;;5047381;28;20028;-60
2021/07/02 05:36:10;;;;;;;;;;;18.00;99.90;;;;;;5040713;28;19982;-60
2021/07/02 05:38:36;;;;;;;;;;;18.20;99.90;;;;;;5026892;28;19989;-60
2021/07/02 05:41:02;;;;;;;;;;;18.30;99.90;;;;;;5027117;28;20036;-60
2021/07/02 05:43:27;;;;;;;;;;;18.30;99.90;;;;;;5027160;28;20088;-60
2021/07/02 05:45:53;;;;;;;;;;;18.20;99.90;;;;;;5026895;28;19994;-60
2021/07/02 05:48:21;;;;;;;;;;;18.40;99.90;;;;;;5027007;28;20088;-61
2021/07/02 05:50:47;;;;;;;;;;;18.30;99.90;;;;;;5041053;28;20237;-61
2021/07/02 05:53:13;;;;;;;;;;;18.40;99.90;;;;;;5040052;28;20024;-60
2021/07/02 05:55:39;;;;;;;;;;;18.60;99.90;;;;;;5030516;28;20031;-60
2021/07/02 05:58:05;;;;;;;;;;;18.60;99.90;;;;;;5029940;28;19986;-61
2021/07/02 06:00:30;;;;;;;;;;;18.60;99.90;;;;;;5027751;28;20452;-60
2021/07/02 06:02:56;;;;;;;;;;;18.70;99.90;;;;;;5042044;28;20216;-60
2021/07/02 06:05:21;;;;;;;;;;;18.80;99.90;;;;;;5032437;28;19990;-60
2021/07/02 06:07:48;;;;;;;;;;;18.70;99.90;;;;;;5050771;28;19986;-60
2021/07/02 06:10:15;;;;;;;;;;;18.60;99.90;;;;;;5043992;28;20005;-60
2021/07/02 06:12:40;;;;;;;;;;;18.60;99.90;;;;;;5040593;28;20518;-61
2021/07/02 06:15:07;;;;;;;;;;;18.70;99.90;;;;;;5050310;28;19982;-61
2021/07/02 06:17:32;;;;;;;;;;;18.80;99.90;;;;;;5050494;28;19981;-60
2021/07/02 06:19:58;;;;;;;;;;;18.80;99.90;;;;;;5038202;28;19990;-60
2021/07/02 06:22:23;;;;;;;;;;;18.90;99.90;;;;;;5030372;28;19986;-60
2021/07/02 06:24:49;;;;;;;;;;;18.80;99.90;;;;;;5034609;28;19997;-60
2021/07/02 06:27:14;;;;;;;;;;;18.90;99.90;;;;;;5050830;28;19989;-60
2021/07/02 06:29:40;;;;;;;;;;;18.90;99.90;;;;;;5050602;28;20029;-60
2021/07/02 06:32:05;;;;;;;;;;;18.80;99.90;;;;;;5039739;28;19986;-60
2021/07/02 06:34:31;;;;;;;;;;;18.80;99.90;;;;;;5034201;28;20043;-60
2021/07/02 06:36:57;;;;;;;;;;;18.90;99.90;;;;;;5030398;28;20017;-60
2021/07/02 06:39:22;;;;;;;;;;;19.00;99.90;;;;;;5031762;28;19990;-60
2021/07/02 06:41:48;;;;;;;;;;;19.00;99.90;;;;;;5030729;28;19998;-60
2021/07/02 06:44:13;;;;;;;;;;;19.10;99.90;;;;;;5039922;28;19986;-60
2021/07/02 06:46:39;;;;;;;;;;;19.00;99.90;;;;;;5050422;28;19982;-61
2021/07/02 06:49:05;;;;;;;;;;;19.00;99.90;;;;;;5042346;28;20392;-61
2021/07/02 06:51:36;;;;;;;;;;;19.00;99.90;;;;;;5034965;28;20006;-60
2021/07/02 06:54:02;;;;;;;;;;;19.00;99.90;;;;;;5046174;28;19985;-61
2021/07/02 06:56:28;;;;;;;;;;;19.00;99.90;;;;;;5042181;28;19986;-61
2021/07/02 06:58:55;;;;;;;;;;;19.10;99.90;;;;;;5042196;28;19989;-61
2021/07/02 07:01:20;;;;;;;;;;;19.20;99.90;;;;;;5031439;28;20012;-61
2021/07/02 07:03:46;;;;;;;;;;;19.30;99.90;;;;;;5035173;28;19990;-61
2021/07/02 07:06:11;;;;;;;;;;;19.20;99.90;;;;;;5045806;28;19997;-61
2021/07/02 07:08:37;;;;;;;;;;;19.30;99.90;;;;;;5048269;28;20092;-61
2021/07/02 07:11:02;;;;;;;;;;;19.20;99.90;;;;;;5035058;28;20068;-61
2021/07/02 07:13:28;;;;;;;;;;;19.30;99.90;;;;;;5034538;28;20008;-61
2021/07/02 07:15:54;;;;;;;;;;;19.30;99.90;;;;;;5036748;28;19990;-60
2021/07/02 07:18:21;;;;;;;;;;;19.30;99.90;;;;;;5043140;28;20487;-61
2021/07/02 07:20:47;;;;;;;;;;;19.40;99.90;;;;;;5036569;28;20001;-61
2021/07/02 07:23:13;;;;;;;;;;;19.40;99.90;;;;;;5046362;28;20387;-61
2021/07/02 07:25:39;;;;;;;;;;;19.50;99.90;;;;;;5046551;28;19982;-61
2021/07/02 07:28:04;;;;;;;;;;;19.60;99.90;;;;;;5040558;28;20087;-61
2021/07/02 07:30:30;;;;;;;;;;;19.60;99.90;;;;;;5038079;28;20010;-61
2021/07/02 07:32:56;;;;;;;;;;;19.50;99.90;;;;;;5029506;28;19990;-60
2021/07/02 07:35:28;;;;;;;;;;;19.50;99.90;;;;;;5029304;28;20020;-60
2021/07/02 07:37:57;;;;;;;;;;;19.70;99.90;;;;;;5032635;28;20475;-60
2021/07/02 07:40:24;;;;;;;;;;;19.60;99.90;;;;;;5047256;28;19996;-60
2021/07/02 07:42:50;;;;;;;;;;;19.70;99.90;;;;;;5035364;28;20001;-60
2021/07/02 07:45:17;;;;;;;;;;;19.80;99.90;;;;;;5031497;28;20001;-61
2021/07/02 07:47:42;;;;;;;;;;;19.80;99.90;;;;;;5029492;28;20343;-61
2021/07/02 07:50:10;;;;;;;;;;;19.70;99.90;;;;;;5029708;28;20006;-61
2021/07/02 07:52:45;;;;;;;;;;;19.50;99.90;;;;;;5032505;28;20047;-61
2021/07/02 07:55:11;;;;;;;;;;;19.60;99.90;;;;;;5028469;28;20403;-61
2021/07/02 07:57:37;;;;;;;;;;;19.70;99.90;;;;;;5029288;28;19994;-61
2021/07/02 08:00:05;;;;;;;;;;;19.80;99.90;;;;;;5029909;28;19992;-61
2021/07/02 08:02:31;;;;;;;;;;;19.90;99.90;;;;;;5030244;28;20387;-61
2021/07/02 08:04:57;;;;;;;;;;;19.80;99.90;;;;;;5029861;28;19994;-61
2021/07/02 08:07:23;;;;;;;;;;;20.00;99.90;;;;;;5028575;28;20341;-61
2021/07/02 08:09:48;;;;;;;;;;;19.90;99.90;;;;;;5028561;28;20056;-60
2021/07/02 08:12:14;;;;;;;;;;;20.00;99.90;;;;;;5028373;28;19986;-60
2021/07/02 08:14:40;;;;;;;;;;;20.00;99.90;;;;;;5028189;28;20056;-60
2021/07/02 08:17:05;;;;;;;;;;;20.10;99.90;;;;;;5028082;28;20056;-60
2021/07/02 08:19:31;;;;;;;;;;;20.10;99.90;;;;;;5030173;28;20033;-60
2021/07/02 08:21:57;;;;;;;;;;;20.30;99.90;;;;;;5028959;28;19996;-60
2021/07/02 08:24:22;;;;;;;;;;;20.30;99.90;;;;;;5029400;28;20108;-61
2021/07/02 08:26:55;;;;;;;;;;;20.30;99.90;;;;;;5033692;28;19993;-60
2021/07/02 08:29:29;;;;;;;;;;;20.40;99.90;;;;;;5033843;28;20090;-60
2021/07/02 08:31:55;;;;;;;;;;;20.50;99.90;;;;;;5033566;28;20392;-60
2021/07/02 08:34:20;;;;;;;;;;;20.50;99.90;;;;;;5029310;28;19994;-60
2021/07/02 08:36:46;;;;;;;;;;;20.60;99.90;;;;;;5035234;28;20011;-60
2021/07/02 08:39:12;;;;;;;;;;;20.70;99.90;;;;;;5067593;28;19997;-60
2021/07/02 08:41:38;;;;;;;;;;;20.70;99.90;;;;;;5039962;28;20092;-60
2021/07/02 08:44:04;;;;;;;;;;;20.70;99.90;;;;;;5035548;28;20072;-60
2021/07/02 08:46:30;;;;;;;;;;;20.60;99.90;;;;;;5046883;28;19993;-60
2021/07/02 08:48:58;;;;;;;;;;;20.60;99.90;;;;;;5048131;28;20029;-60
2021/07/02 08:51:24;;;;;;;;;;;20.60;99.90;;;;;;5032251;28;20009;-60
2021/07/02 08:53:49;;;;;;;;;;;20.60;99.90;;;;;;5037421;28;20039;-60
2021/07/02 08:56:18;;;;;;;;;;;20.80;99.90;;;;;;5029381;28;19987;-59
2021/07/02 08:58:44;;;;;;;;;;;20.70;99.90;;;;;;5028997;28;19994;-60
2021/07/02 09:01:30;;;;;;;;;;;21.00;99.90;;;;;;5029072;28;19989;-60
2021/07/02 09:04:13;;;;;;;;;;;21.10;99.90;;;;;;5028723;28;19994;-60
2021/07/02 09:06:40;;;;;;;;;;;21.10;99.90;;;;;;5028470;28;19990;-60
2021/07/02 09:09:07;;;;;;;;;;;21.10;99.90;;;;;;5029611;28;19986;-60
2021/07/02 09:11:35;;;;;;;;;;;21.00;99.90;;;;;;5027684;28;20131;-60
2021/07/02 09:14:03;;;;;;;;;;;21.10;99.90;;;;;;5028482;28;20000;-60
2021/07/02 09:16:37;;;;;;;;;;;21.30;99.90;;;;;;5026293;28;19997;-60
2021/07/02 09:19:21;;;;;;;;;;;21.30;99.90;;;;;;5043635;28;19994;-60
2021/07/02 09:21:48;;;;;;;;;;;21.40;99.90;;;;;;5046396;28;19989;-60
2021/07/02 09:24:32;;;;;;;;;;;21.30;99.90;;;;;;5046148;28;19982;-60
2021/07/02 09:26:58;;;;;;;;;;;21.40;99.90;;;;;;5030492;28;20709;-60
2021/07/02 09:29:24;;;;;;;;;;;21.60;99.90;;;;;;5026670;28;20001;-60
2021/07/02 09:31:59;;;;;;;;;;;21.60;99.90;;;;;;5027026;28;19986;-60
2021/07/02 09:34:44;;;;;;;;;;;21.60;99.90;;;;;;5030930;28;19981;-60
2021/07/02 09:37:19;;;;;;;;;;;21.60;99.90;;;;;;5046751;28;19992;-60
2021/07/02 09:39:45;;;;;;;;;;;21.60;99.90;;;;;;5047375;28;20044;-60
2021/07/02 09:42:23;;;;;;;;;;;21.90;99.90;;;;;;5046542;28;20028;-60
2021/07/02 09:45:03;;;;;;;;;;;21.90;99.90;;;;;;5041208;28;19997;-60
2021/07/02 09:47:29;;;;;;;;;;;21.90;99.90;;;;;;5026540;28;19993;-60
2021/07/02 09:50:13;;;;;;;;;;;21.90;99.90;;;;;;5044045;28;20016;-60
2021/07/02 09:52:43;;;;;;;;;;;21.90;99.90;;;;;;5046331;28;20430;-60
2021/07/02 09:55:09;;;;;;;;;;;22.00;99.90;;;;;;5038675;28;20069;-60
2021/07/02 09:57:34;;;;;;;;;;;22.10;99.90;;;;;;5027022;28;19986;-60
2021/07/02 10:00:13;;;;;;;;;;;22.20;99.90;;;;;;5026130;28;19990;-60
2021/07/02 10:02:38;;;;;;;;;;;22.20;99.90;;;;;;5026537;28;20541;-60
2021/07/02 10:05:05;;;;;;;;;;;22.20;99.90;;;;;;5027546;28;19990;-60
2021/07/02 10:07:31;;;;;;;;;;;22.30;99.90;;;;;;5026359;28;19983;-61
2021/07/02 10:09:56;;;;;;;;;;;22.60;99.90;;;;;;5031793;28;20020;-60
2021/07/02 10:12:23;;;;;;;;;;;22.60;99.90;;;;;;5052181;28;20015;-61
2021/07/02 10:14:50;;;;;;;;;;;22.60;99.90;;;;;;5038770;28;20080;-61
2021/07/02 10:17:19;;;;;;;;;;;22.70;99.90;;;;;;5036225;28;20017;-60
2021/07/02 10:19:45;;;;;;;;;;;22.80;99.90;;;;;;5043944;28;19994;-60
2021/07/02 10:22:11;;;;;;;;;;;22.50;99.90;;;;;;5036308;28;19990;-60
2021/07/02 10:24:37;;;;;;;;;;;22.80;99.90;;;;;;5045227;28;20059;-60
2021/07/02 10:27:03;;;;;;;;;;;22.90;99.90;;;;;;5036209;28;20036;-60
2021/07/02 10:29:31;;;;;;;;;;;23.00;99.90;;;;;;5031617;28;20077;-60
2021/07/02 10:31:57;;;;;;;;;;;23.10;99.90;;;;;;5035747;28;19997;-60
2021/07/02 10:34:23;;;;;;;;;;;23.20;99.90;;;;;;5046643;28;19985;-60
2021/07/02 10:36:50;;;;;;;;;;;23.30;99.90;;;;;;5046764;28;20078;-60
2021/07/02 10:39:32;;;;;;;;;;;23.30;99.90;;;;;;5034354;28;19990;-60
2021/07/02 10:42:11;;;;;;;;;;;23.30;99.90;;;;;;5026708;28;19997;-60
2021/07/02 10:44:52;;;;;;;;;;;23.30;99.90;;;;;;5026436;28;19994;-60
2021/07/02 10:47:18;;;;;;;;;;;23.20;99.90;;;;;;5030476;28;20044;-61
2021/07/02 10:49:43;;;;;;;;;;;23.50;99.90;;;;;;5044776;28;20006;-61
2021/07/02 10:52:18;;;;;;;;;;;23.90;99.90;;;;;;5029297;28;20021;-61
2021/07/02 10:54:44;;;;;;;;;;;23.90;99.90;;;;;;5045834;28;20001;-60
2021/07/02 10:57:12;;;;;;;;;;;23.80;99.90;;;;;;5035539;28;19985;-60
2021/07/02 10:59:38;;;;;;;;;;;23.80;99.90;;;;;;5038223;28;19986;-60
2021/07/02 11:02:06;;;;;;;;;;;24.10;99.90;;;;;;5037174;28;19997;-60
2021/07/02 11:04:52;;;;;;;;;;;24.20;99.90;;;;;;5037470;28;19990;-61
2021/07/02 11:07:18;;;;;;;;;;;24.30;99.90;;;;;;5036108;28;20802;-60
2021/07/02 11:09:44;;;;;;;;;;;24.30;99.90;;;;;;5029505;28;19998;-61
2021/07/02 11:12:11;;;;;;;;;;;24.30;99.90;;;;;;5035156;28;20032;-60
2021/07/02 11:14:51;;;;;;;;;;;24.30;99.90;;;;;;5031279;28;19997;-60
2021/07/02 11:17:27;;;;;;;;;;;24.20;99.90;;;;;;5030111;28;21251;-60
2021/07/02 11:20:09;;;;;;;;;;;24.20;99.90;;;;;;5029475;28;20017;-60
2021/07/02 11:22:45;;;;;;;;;;;24.40;99.90;;;;;;5029699;28;19982;-60
2021/07/02 11:25:19;;;;;;;;;;;24.50;99.90;;;;;;5048003;28;20047;-60
2021/07/02 11:27:50;;;;;;;;;;;24.40;99.90;;;;;;5056936;28;19988;-60
2021/07/02 11:30:18;;;;;;;;;;;24.50;99.90;;;;;;5050971;28;20002;-60
2021/07/02 11:32:45;;;;;;;;;;;24.60;99.90;;;;;;5047169;28;19994;-60
2021/07/02 11:35:19;;;;;;;;;;;24.80;99.90;;;;;;5047960;28;20001;-60
2021/07/02 11:38:08;;;;;;;;;;;24.80;99.90;;;;;;5040981;28;20031;-60
2021/07/02 11:40:35;;;;;;;;;;;25.00;99.90;;;;;;5027085;28;20052;-60
2021/07/02 11:43:01;;;;;;;;;;;25.00;99.90;;;;;;5033049;28;19986;-60
2021/07/02 11:45:40;;;;;;;;;;;25.10;99.90;;;;;;5038461;28;20495;-60
2021/07/02 11:48:06;;;;;;;;;;;25.20;99.90;;;;;;5033631;28;19986;-60
2021/07/02 11:50:38;;;;;;;;;;;25.30;99.90;;;;;;5034904;28;20026;-60
2021/07/02 11:53:04;;;;;;;;;;;25.40;99.90;;;;;;5028237;28;20005;-60
2021/07/02 11:55:29;;;;;;;;;;;25.70;99.90;;;;;;5029015;28;20348;-60
2021/07/02 11:58:11;;;;;;;;;;;25.80;99.90;;;;;;5028051;28;19994;-60
2021/07/02 12:03:47;;;;;;;;;;;26.00;99.90;;;;;;5026929;28;20446;-60
2021/07/02 12:06:26;;;;;;;;;;;26.20;99.90;;;;;;5027802;28;19989;-61
2021/07/02 12:08:57;;;;;;;;;;;26.50;99.90;;;;;;5026778;28;19989;-60
2021/07/02 12:11:45;;;;;;;;;;;26.50;99.90;;;;;;5046110;28;20454;-60
2021/07/02 12:14:11;;;;;;;;;;;26.40;99.90;;;;;;5046726;28;19986;-60
2021/07/02 12:16:38;;;;;;;;;;;26.50;99.90;;;;;;5047002;28;19997;-61
2021/07/02 12:19:05;;;;;;;;;;;26.80;99.90;;;;;;5046842;28;19985;-60
2021/07/02 12:21:31;;;;;;;;;;;26.80;99.90;;;;;;5046897;28;20043;-60
2021/07/02 12:24:00;;;;;;;;;;;26.90;99.90;;;;;;5046703;28;20033;-60
2021/07/02 12:26:28;;;;;;;;;;;27.00;99.90;;;;;;5047149;28;20467;-60
2021/07/02 12:28:55;;;;;;;;;;;27.20;99.90;;;;;;5046241;28;20327;-60
2021/07/02 12:31:22;;;;;;;;;;;27.30;99.90;;;;;;5046858;28;20009;-60
2021/07/02 12:33:47;;;;;;;;;;;27.10;99.90;;;;;;5046929;28;19989;-60
2021/07/02 12:36:13;;;;;;;;;;;27.50;99.90;;;;;;5047343;28;19990;-60
2021/07/02 12:38:57;;;;;;;;;;;27.80;99.90;;;;;;5046589;28;19985;-60
2021/07/02 12:41:23;;;;;;;;;;;27.80;99.90;;;;;;5046822;28;19982;-60
2021/07/02 12:43:48;;;;;;;;;;;27.90;99.90;;;;;;5046594;28;20653;-60
2021/07/02 12:46:15;;;;;;;;;;;28.00;99.90;;;;;;5046969;28;19989;-60
2021/07/02 12:48:41;;;;;;;;;;;28.10;99.90;;;;;;5046427;28;19985;-60
2021/07/02 12:51:08;;;;;;;;;;;28.30;99.90;;;;;;5046173;28;20059;-61
2021/07/02 12:56:19;;;;;;;;;;;28.50;99.90;;;;;;5046994;28;20032;-60
2021/07/02 12:58:44;;;;;;;;;;;28.60;99.90;;;;;;5046749;28;20462;-60
2021/07/02 13:01:10;;;;;;;;;;;28.70;99.90;;;;;;5046475;28;19986;-60
2021/07/02 13:03:35;;;;;;;;;;;28.70;99.90;;;;;;5046594;28;20464;-60
2021/07/02 13:06:15;;;;;;;;;;;28.60;99.90;;;;;;5045832;28;20017;-58
2021/07/02 13:08:41;;;;;;;;;;;28.80;99.90;;;;;;5046203;28;19988;-58
2021/07/02 13:11:20;;;;;;;;;;;28.70;99.90;;;;;;5045595;28;20020;-58
2021/07/02 13:13:46;;;;;;;;;;;28.90;99.90;;;;;;5046440;28;19982;-59
2021/07/02 13:16:13;;;;;;;;;;;29.00;99.90;;;;;;5044458;28;20036;-58
2021/07/02 13:18:51;;;;;;;;;;;29.20;99.90;;;;;;5045826;28;20036;-58
2021/07/02 13:21:29;;;;;;;;;;;29.00;99.90;;;;;;5046091;28;19990;-58
2021/07/02 13:23:57;;;;;;;;;;;29.30;99.90;;;;;;5045812;28;19982;-58
2021/07/02 13:26:24;;;;;;;;;;;29.30;99.90;;;;;;5044385;28;20444;-58
2021/07/02 13:28:50;;;;;;;;;;;29.50;99.90;;;;;;5045405;28;19986;-58
2021/07/02 13:31:32;;;;;;;;;;;29.70;99.90;;;;;;5046010;28;20109;-58
2021/07/02 13:33:58;;;;;;;;;;;29.70;99.90;;;;;;5045384;28;20284;-58
2021/07/02 13:36:30;;;;;;;;;;;29.80;99.90;;;;;;5045719;28;19992;-58
2021/07/02 13:39:00;;;;;;;;;;;29.80;99.90;;;;;;5045703;28;20506;-58
2021/07/02 13:41:26;;;;;;;;;;;29.80;99.90;;;;;;5045702;28;20068;-58
2021/07/02 13:43:57;;;;;;;;;;;30.00;99.90;;;;;;5045537;28;20096;-58
2021/07/02 13:46:30;;;;;;;;;;;30.10;99.90;;;;;;5045682;28;19994;-58
2021/07/02 13:48:56;;;;;;;;;;;30.10;99.90;;;;;;5044870;28;19990;-59
2021/07/02 13:51:22;;;;;;;;;;;29.80;99.10;;;;;;5045563;28;20453;-58
2021/07/02 13:53:48;;;;;;;;;;;29.70;99.90;;;;;;5045588;28;20275;-58
2021/07/02 13:56:13;;;;;;;;;;;30.00;99.90;;;;;;5045728;28;20025;-58
2021/07/02 13:58:39;;;;;;;;;;;30.30;99.90;;;;;;5041741;28;20001;-58
2021/07/02 14:01:04;;;;;;;;;;;30.40;99.90;;;;;;5029888;28;20432;-58
2021/07/02 14:03:31;;;;;;;;;;;30.40;99.20;;;;;;5041939;28;19993;-58
2021/07/02 14:05:56;;;;;;;;;;;30.50;99.70;;;;;;5046903;28;19992;-58
2021/07/02 14:08:23;;;;;;;;;;;30.60;99.20;;;;;;5039874;28;19986;-58
2021/07/02 14:10:49;;;;;;;;;;;30.70;99.70;;;;;;5038075;28;20013;-58
2021/07/02 14:13:14;;;;;;;;;;;30.80;99.50;;;;;;5027678;28;19992;-58
2021/07/02 14:15:40;;;;;;;;;;;31.00;99.90;;;;;;5039238;28;20017;-58
2021/07/02 14:18:08;;;;;;;;;;;31.10;99.90;;;;;;5033319;28;19992;-58
2021/07/02 14:20:33;;;;;;;;;;;30.80;99.00;;;;;;5049260;28;20077;-58
2021/07/02 14:22:59;;;;;;;;;;;30.90;99.50;;;;;;5036207;28;20085;-58